N393VF KPDK-KAVL
Flight info
| Callsign | N393VF |
|---|---|
| Flight time | N/A |
| Altitude | 25000 |
| Route | NOTWO BALNN SUNET NURUE |
| Aircraft | GLF6/M-SFGHIRWXY/S |
Departure
| Time | 2026-04-24 23:33 |
|---|---|
| Airport | DeKalb Peachtree Airport (KPDK) |
Arrival
| Time | N/A |
|---|---|
| Airport | Asheville Regional Airport (KAVL) |
| Time | Latitude | Longitude | Altitude | Speed | Heading |
|---|---|---|---|---|---|
| 2026-04-24 23:23 | 33.88059 | -84.30270 | 982 ft | 0 kts | 90° |
| 2026-04-24 23:29 | 33.88059 | -84.30266 | 982 ft | 4 kts | 90° |
| 2026-04-24 23:30 | 33.88059 | -84.30221 | 981 ft | 0 kts | 90° |
| 2026-04-24 23:31 | 33.88038 | -84.30212 | 980 ft | 11 kts | 195° |
| 2026-04-24 23:31 | 33.88027 | -84.30139 | 979 ft | 14 kts | 25° |
| 2026-04-24 23:31 | 33.88193 | -84.30066 | 978 ft | 45 kts | 21° |
| 2026-04-24 23:32 | 33.88447 | -84.29943 | 979 ft | 19 kts | 53° |
| 2026-04-24 23:32 | 33.88420 | -84.29784 | 972 ft | 20 kts | 107° |
| 2026-04-24 23:32 | 33.88296 | -84.29755 | 969 ft | 31 kts | 201° |
| 2026-04-24 23:32 | 33.87827 | -84.29964 | 971 ft | 115 kts | 201° |
| 2026-04-24 23:33 | 33.86829 | -84.30410 | 1044 ft | 183 kts | 201° |
| 2026-04-24 23:33 | 33.86087 | -84.30719 | 2060 ft | 167 kts | 201° |
| 2026-04-24 23:33 | 33.84832 | -84.31214 | 3340 ft | 160 kts | 201° |
| 2026-04-24 23:33 | 33.83723 | -84.31841 | 3641 ft | 194 kts | 223° |
| 2026-04-24 23:34 | 33.83049 | -84.33471 | 3696 ft | 246 kts | 263° |
| 2026-04-24 23:34 | 33.83490 | -84.35572 | 4209 ft | 278 kts | 305° |
| 2026-04-24 23:34 | 33.84982 | -84.36904 | 5598 ft | 276 kts | 340° |
| 2026-04-24 23:34 | 33.86854 | -84.36980 | 6919 ft | 277 kts | 14° |
| 2026-04-24 23:35 | 33.88540 | -84.35936 | 7950 ft | 285 kts | 28° |
| 2026-04-24 23:35 | 33.90412 | -84.34946 | 8776 ft | 298 kts | 16° |
| 2026-04-24 23:35 | 33.92392 | -84.34289 | 10022 ft | 297 kts | 10° |
| 2026-04-24 23:35 | 33.94395 | -84.33809 | 11237 ft | 297 kts | 7° |
| 2026-04-24 23:36 | 33.96426 | -84.33431 | 12379 ft | 300 kts | 5° |
| 2026-04-24 23:36 | 33.98486 | -84.33102 | 13560 ft | 301 kts | 4° |
| 2026-04-24 23:36 | 34.00556 | -84.32801 | 14708 ft | 305 kts | 4° |
| 2026-04-24 23:36 | 34.02639 | -84.32512 | 15879 ft | 307 kts | 4° |
| 2026-04-24 23:37 | 34.04770 | -84.32224 | 17045 ft | 309 kts | 4° |
| 2026-04-24 23:37 | 34.06884 | -84.31942 | 18098 ft | 314 kts | 4° |
| 2026-04-24 23:37 | 34.11312 | -84.31357 | 20213 ft | 327 kts | 4° |
| 2026-04-24 23:38 | 34.13596 | -84.31055 | 21234 ft | 334 kts | 5° |
| 2026-04-24 23:38 | 34.15926 | -84.30747 | 22286 ft | 339 kts | 5° |
| 2026-04-24 23:38 | 34.18275 | -84.30437 | 23271 ft | 346 kts | 5° |